sensor_id;sensor_type;location;lat;lon;timestamp;P1;durP1;ratioP1;P2;durP2;ratioP2
82779;SDS011;72511;45.120;20.720;2024-03-06T00:07:51;27.75;;;16.77;;
82779;SDS011;72511;45.120;20.720;2024-03-06T00:17:52;34.95;;;19.25;;
82779;SDS011;72511;45.120;20.720;2024-03-06T00:27:54;43.50;;;22.98;;
82779;SDS011;72511;45.120;20.720;2024-03-06T00:37:55;71.53;;;32.97;;
82779;SDS011;72511;45.120;20.720;2024-03-06T00:47:57;57.83;;;29.10;;
82779;SDS011;72511;45.120;20.720;2024-03-06T00:57:58;47.65;;;22.58;;
82779;SDS011;72511;45.120;20.720;2024-03-06T01:08:00;47.58;;;24.85;;
82779;SDS011;72511;45.120;20.720;2024-03-06T01:18:01;33.08;;;17.60;;
82779;SDS011;72511;45.120;20.720;2024-03-06T01:28:04;35.25;;;18.13;;
82779;SDS011;72511;45.120;20.720;2024-03-06T01:38:06;29.58;;;16.17;;
82779;SDS011;72511;45.120;20.720;2024-03-06T01:48:08;30.90;;;17.15;;
82779;SDS011;72511;45.120;20.720;2024-03-06T01:58:10;29.63;;;15.98;;
82779;SDS011;72511;45.120;20.720;2024-03-06T02:08:11;28.95;;;16.02;;
82779;SDS011;72511;45.120;20.720;2024-03-06T02:18:13;38.30;;;20.80;;
82779;SDS011;72511;45.120;20.720;2024-03-06T02:28:14;21.60;;;11.07;;
82779;SDS011;72511;45.120;20.720;2024-03-06T02:38:16;18.73;;;11.25;;
82779;SDS011;72511;45.120;20.720;2024-03-06T02:48:17;16.23;;;9.85;;
82779;SDS011;72511;45.120;20.720;2024-03-06T02:58:19;15.20;;;8.27;;
82779;SDS011;72511;45.120;20.720;2024-03-06T03:08:20;12.23;;;8.23;;
82779;SDS011;72511;45.120;20.720;2024-03-06T03:18:22;20.20;;;11.82;;
82779;SDS011;72511;45.120;20.720;2024-03-06T03:28:23;17.08;;;9.80;;
82779;SDS011;72511;45.120;20.720;2024-03-06T03:38:24;15.82;;;10.60;;
82779;SDS011;72511;45.120;20.720;2024-03-06T03:48:26;19.08;;;11.27;;
82779;SDS011;72511;45.120;20.720;2024-03-06T03:58:27;24.65;;;13.80;;
82779;SDS011;72511;45.120;20.720;2024-03-06T04:08:30;46.05;;;16.33;;
82779;SDS011;72511;45.120;20.720;2024-03-06T04:18:32;77.57;;;30.58;;
82779;SDS011;72511;45.120;20.720;2024-03-06T04:28:36;95.03;;;40.03;;
82779;SDS011;72511;45.120;20.720;2024-03-06T04:38:38;54.28;;;33.20;;
82779;SDS011;72511;45.120;20.720;2024-03-06T04:48:39;32.25;;;18.42;;
82779;SDS011;72511;45.120;20.720;2024-03-06T04:58:41;25.10;;;15.35;;
82779;SDS011;72511;45.120;20.720;2024-03-06T05:08:42;28.95;;;14.93;;
82779;SDS011;72511;45.120;20.720;2024-03-06T05:18:43;57.75;;;28.50;;
82779;SDS011;72511;45.120;20.720;2024-03-06T05:28:45;42.30;;;22.92;;
82779;SDS011;72511;45.120;20.720;2024-03-06T05:38:46;40.05;;;20.83;;
82779;SDS011;72511;45.120;20.720;2024-03-06T05:48:49;87.10;;;35.47;;
82779;SDS011;72511;45.120;20.720;2024-03-06T05:58:52;65.55;;;30.08;;
82779;SDS011;72511;45.120;20.720;2024-03-06T06:08:54;42.45;;;21.42;;
82779;SDS011;72511;45.120;20.720;2024-03-06T06:18:55;36.45;;;20.23;;
82779;SDS011;72511;45.120;20.720;2024-03-06T06:28:57;43.40;;;21.13;;
82779;SDS011;72511;45.120;20.720;2024-03-06T06:38:58;48.22;;;25.60;;
82779;SDS011;72511;45.120;20.720;2024-03-06T06:49:00;27.67;;;15.07;;
82779;SDS011;72511;45.120;20.720;2024-03-06T06:59:01;31.58;;;14.85;;
82779;SDS011;72511;45.120;20.720;2024-03-06T07:09:03;47.97;;;22.52;;
82779;SDS011;72511;45.120;20.720;2024-03-06T07:19:05;29.70;;;16.80;;
82779;SDS011;72511;45.120;20.720;2024-03-06T07:29:07;38.40;;;19.20;;
82779;SDS011;72511;45.120;20.720;2024-03-06T07:39:15;42.65;;;22.30;;
82779;SDS011;72511;45.120;20.720;2024-03-06T07:49:17;52.22;;;28.85;;
82779;SDS011;72511;45.120;20.720;2024-03-06T07:59:19;55.22;;;29.92;;
82779;SDS011;72511;45.120;20.720;2024-03-06T08:09:20;79.97;;;42.53;;
82779;SDS011;72511;45.120;20.720;2024-03-06T08:19:22;62.08;;;33.78;;
82779;SDS011;72511;45.120;20.720;2024-03-06T08:29:26;63.05;;;33.75;;
82779;SDS011;72511;45.120;20.720;2024-03-06T08:39:28;41.97;;;21.55;;
82779;SDS011;72511;45.120;20.720;2024-03-06T08:49:30;42.72;;;23.30;;
82779;SDS011;72511;45.120;20.720;2024-03-06T08:59:31;59.38;;;32.70;;
82779;SDS011;72511;45.120;20.720;2024-03-06T09:09:33;42.40;;;20.98;;
82779;SDS011;72511;45.120;20.720;2024-03-06T09:19:35;50.08;;;26.92;;
82779;SDS011;72511;45.120;20.720;2024-03-06T09:29:37;54.50;;;30.60;;
82779;SDS011;72511;45.120;20.720;2024-03-06T09:39:39;49.70;;;27.95;;
82779;SDS011;72511;45.120;20.720;2024-03-06T09:49:40;79.38;;;39.85;;
82779;SDS011;72511;45.120;20.720;2024-03-06T09:59:42;114.97;;;55.13;;
82779;SDS011;72511;45.120;20.720;2024-03-06T10:09:46;156.77;;;66.57;;
82779;SDS011;72511;45.120;20.720;2024-03-06T10:19:49;95.15;;;45.30;;
82779;SDS011;72511;45.120;20.720;2024-03-06T10:30:03;65.00;;;32.90;;
82779;SDS011;72511;45.120;20.720;2024-03-06T10:40:07;92.22;;;46.97;;
82779;SDS011;72511;45.120;20.720;2024-03-06T10:50:14;46.13;;;20.83;;
82779;SDS011;72511;45.120;20.720;2024-03-06T11:00:16;46.72;;;21.83;;
82779;SDS011;72511;45.120;20.720;2024-03-06T11:10:38;64.25;;;30.38;;
82779;SDS011;72511;45.120;20.720;2024-03-06T11:20:40;53.70;;;29.08;;
82779;SDS011;72511;45.120;20.720;2024-03-06T11:30:46;42.78;;;22.58;;
82779;SDS011;72511;45.120;20.720;2024-03-06T11:40:48;41.38;;;25.27;;
82779;SDS011;72511;45.120;20.720;2024-03-06T11:50:49;28.05;;;17.20;;
82779;SDS011;72511;45.120;20.720;2024-03-06T12:00:52;32.70;;;15.35;;
82779;SDS011;72511;45.120;20.720;2024-03-06T12:10:55;20.63;;;12.68;;
82779;SDS011;72511;45.120;20.720;2024-03-06T12:21:00;21.13;;;10.00;;
82779;SDS011;72511;45.120;20.720;2024-03-06T12:31:03;19.77;;;10.23;;
82779;SDS011;72511;45.120;20.720;2024-03-06T12:41:05;21.17;;;11.43;;
82779;SDS011;72511;45.120;20.720;2024-03-06T12:51:06;16.95;;;8.85;;
82779;SDS011;72511;45.120;20.720;2024-03-06T13:01:08;16.05;;;9.00;;
82779;SDS011;72511;45.120;20.720;2024-03-06T13:11:12;19.75;;;9.38;;
82779;SDS011;72511;45.120;20.720;2024-03-06T13:21:14;23.60;;;9.93;;
82779;SDS011;72511;45.120;20.720;2024-03-06T13:31:16;15.30;;;6.88;;
82779;SDS011;72511;45.120;20.720;2024-03-06T13:41:17;9.95;;;6.43;;
82779;SDS011;72511;45.120;20.720;2024-03-06T13:51:19;14.32;;;7.70;;
82779;SDS011;72511;45.120;20.720;2024-03-06T14:01:22;14.30;;;7.93;;
82779;SDS011;72511;45.120;20.720;2024-03-06T14:11:23;16.13;;;10.18;;
82779;SDS011;72511;45.120;20.720;2024-03-06T14:21:25;13.60;;;8.50;;
82779;SDS011;72511;45.120;20.720;2024-03-06T14:31:26;56.47;;;36.15;;
82779;SDS011;72511;45.120;20.720;2024-03-06T14:41:27;95.10;;;58.72;;
82779;SDS011;72511;45.120;20.720;2024-03-06T14:51:29;90.78;;;39.42;;
82779;SDS011;72511;45.120;20.720;2024-03-06T15:01:32;52.70;;;22.38;;
82779;SDS011;72511;45.120;20.720;2024-03-06T15:11:34;22.58;;;10.48;;
82779;SDS011;72511;45.120;20.720;2024-03-06T15:21:35;34.13;;;15.05;;
82779;SDS011;72511;45.120;20.720;2024-03-06T15:31:37;98.70;;;42.58;;
82779;SDS011;72511;45.120;20.720;2024-03-06T15:41:38;120.70;;;50.38;;
82779;SDS011;72511;45.120;20.720;2024-03-06T15:51:40;28.67;;;12.30;;
82779;SDS011;72511;45.120;20.720;2024-03-06T16:01:41;105.22;;;46.33;;
82779;SDS011;72511;45.120;20.720;2024-03-06T16:11:43;81.55;;;34.53;;
82779;SDS011;72511;45.120;20.720;2024-03-06T16:21:44;114.15;;;47.92;;
82779;SDS011;72511;45.120;20.720;2024-03-06T16:31:46;121.90;;;51.72;;
82779;SDS011;72511;45.120;20.720;2024-03-06T16:41:54;73.03;;;31.88;;
82779;SDS011;72511;45.120;20.720;2024-03-06T16:52:04;26.83;;;15.13;;
82779;SDS011;72511;45.120;20.720;2024-03-06T17:02:06;39.28;;;26.35;;
82779;SDS011;72511;45.120;20.720;2024-03-06T17:12:07;22.35;;;11.38;;
82779;SDS011;72511;45.120;20.720;2024-03-06T17:22:08;20.02;;;11.35;;
82779;SDS011;72511;45.120;20.720;2024-03-06T17:32:10;21.35;;;10.57;;
82779;SDS011;72511;45.120;20.720;2024-03-06T17:42:12;25.98;;;14.48;;
82779;SDS011;72511;45.120;20.720;2024-03-06T17:52:14;106.78;;;45.25;;
82779;SDS011;72511;45.120;20.720;2024-03-06T18:02:15;127.95;;;52.63;;
82779;SDS011;72511;45.120;20.720;2024-03-06T18:12:17;45.85;;;26.15;;
82779;SDS011;72511;45.120;20.720;2024-03-06T18:22:18;33.70;;;18.85;;
82779;SDS011;72511;45.120;20.720;2024-03-06T18:42:25;46.50;;;23.77;;
82779;SDS011;72511;45.120;20.720;2024-03-06T18:52:27;47.58;;;26.73;;
82779;SDS011;72511;45.120;20.720;2024-03-06T19:02:29;68.40;;;35.53;;
82779;SDS011;72511;45.120;20.720;2024-03-06T19:12:33;71.82;;;34.75;;
82779;SDS011;72511;45.120;20.720;2024-03-06T19:22:35;57.00;;;29.25;;
82779;SDS011;72511;45.120;20.720;2024-03-06T19:32:37;50.17;;;23.38;;
82779;SDS011;72511;45.120;20.720;2024-03-06T19:42:39;51.30;;;24.40;;
82779;SDS011;72511;45.120;20.720;2024-03-06T19:52:40;60.55;;;29.45;;
82779;SDS011;72511;45.120;20.720;2024-03-06T20:02:42;43.42;;;24.10;;
82779;SDS011;72511;45.120;20.720;2024-03-06T20:12:44;57.13;;;29.05;;
82779;SDS011;72511;45.120;20.720;2024-03-06T20:22:45;54.45;;;29.40;;
82779;SDS011;72511;45.120;20.720;2024-03-06T20:32:47;32.42;;;17.27;;
82779;SDS011;72511;45.120;20.720;2024-03-06T20:42:48;46.17;;;23.05;;
82779;SDS011;72511;45.120;20.720;2024-03-06T20:52:50;40.10;;;19.08;;
82779;SDS011;72511;45.120;20.720;2024-03-06T21:02:51;39.85;;;19.02;;
82779;SDS011;72511;45.120;20.720;2024-03-06T21:12:53;35.38;;;18.13;;
82779;SDS011;72511;45.120;20.720;2024-03-06T21:22:55;54.45;;;26.60;;
82779;SDS011;72511;45.120;20.720;2024-03-06T21:32:56;36.67;;;19.15;;
82779;SDS011;72511;45.120;20.720;2024-03-06T21:42:58;42.88;;;24.25;;
82779;SDS011;72511;45.120;20.720;2024-03-06T21:53:00;51.40;;;26.75;;
82779;SDS011;72511;45.120;20.720;2024-03-06T22:03:02;46.17;;;20.38;;
82779;SDS011;72511;45.120;20.720;2024-03-06T22:13:03;47.38;;;26.40;;
82779;SDS011;72511;45.120;20.720;2024-03-06T22:23:05;40.47;;;17.83;;
82779;SDS011;72511;45.120;20.720;2024-03-06T22:33:07;38.75;;;20.20;;
82779;SDS011;72511;45.120;20.720;2024-03-06T22:43:08;39.38;;;17.27;;
82779;SDS011;72511;45.120;20.720;2024-03-06T22:53:09;33.80;;;17.55;;
82779;SDS011;72511;45.120;20.720;2024-03-06T23:03:11;31.73;;;16.65;;
82779;SDS011;72511;45.120;20.720;2024-03-06T23:13:12;31.42;;;13.10;;
82779;SDS011;72511;45.120;20.720;2024-03-06T23:23:17;32.55;;;15.15;;
82779;SDS011;72511;45.120;20.720;2024-03-06T23:33:19;32.00;;;16.30;;
82779;SDS011;72511;45.120;20.720;2024-03-06T23:43:20;27.27;;;12.38;;
82779;SDS011;72511;45.120;20.720;2024-03-06T23:53:21;25.83;;;13.00;;
